Terminal Aerodrome Forecast
Issued by NWS

Home | Current Version | Previous Version | Text Only | Print | Product List | Glossary On
Versions: 1 2 3 4 5 6 7 8 9 10 11 12 13 14 15 16
000
FTUS46 KSEW 212300
TAFBFI
TAF
KBFI 212320Z 2200/2224 18007KT P6SM SKC
     FM220800 19003KT P6SM OVC013
     FM221900 18006KT P6SM SCT025 OVC040
     FM222100 22005KT P6SM SCT040 BKN100=

USA.gov is the U.S. government's official web portal to all federal, state and local government web resources and services.